Lancaster, Ohio
Current Conditions -  °F | °C
As of 10:53 AM on Friday 31 Oct 2014 (Local Time) from KLHQ Reporting Station
Overcast Overcast  
Wind Chill: 41°   Ceiling: 3900
Heat Index: 45°   Visibility: 9mi
Dew Point: 40°   Wind: 7mph
Humidity: 82%   Direction: 200°SSW
Pressure: 29.94"   Gusts: NA
Location:  39.71°N, 82.6°W
Report Text: KLHQ 311453Z AUTO 20006KT 9SM OVC039 07/04 A2994 RMK AO2 SLP143 60001 T00720044 58008
Loading
Personal Weather Stations






























Interactive Weather Map
Tropical Storm Tracking
New forecast layout! Learn more

10-Day Weather Forecast

Advertisements
Track Severe Weather on mobile